createdAt,value
2022-10-17T00:01:00.783Z,5.75
2022-10-17T00:03:28.448Z,6.00
2022-10-17T00:05:56.135Z,6.13
2022-10-17T00:08:24.203Z,6.15
2022-10-17T00:11:00.333Z,5.35
2022-10-17T00:13:28.135Z,6.28
2022-10-17T00:15:55.699Z,5.80
2022-10-17T00:18:22.947Z,5.95
2022-10-17T00:20:50.515Z,5.55
2022-10-17T00:23:18.383Z,6.50
2022-10-17T00:25:45.716Z,5.50
2022-10-17T00:28:13.504Z,5.95
2022-10-17T00:30:41.459Z,5.65
2022-10-17T00:33:08.687Z,5.63
2022-10-17T00:35:36.271Z,5.88
2022-10-17T00:38:03.424Z,6.00
2022-10-17T00:40:30.650Z,5.78
2022-10-17T00:42:57.859Z,5.40
2022-10-17T00:45:30.852Z,5.45
2022-10-17T00:48:04.290Z,5.63
2022-10-17T00:50:32.048Z,5.80
2022-10-17T00:53:01.629Z,5.68
2022-10-17T00:55:31.432Z,5.43
2022-10-17T00:58:00.669Z,6.50
2022-10-17T01:00:27.987Z,5.45
2022-10-17T01:02:55.180Z,5.55
2022-10-17T01:05:22.525Z,6.05
2022-10-17T01:07:51.088Z,5.68
2022-10-17T01:10:18.986Z,5.65
2022-10-17T01:13:11.835Z,5.78
2022-10-17T01:15:57.585Z,5.18
2022-10-17T01:18:52.717Z,5.53
2022-10-17T01:21:48.144Z,5.20
2022-10-17T01:24:25.865Z,4.95
2022-10-17T01:27:02.384Z,5.35
2022-10-17T01:30:00.199Z,4.97
2022-10-17T01:32:36.364Z,5.40
2022-10-17T01:35:20.643Z,5.53
2022-10-17T01:37:56.025Z,5.53
2022-10-17T01:40:27.594Z,5.20
2022-10-17T01:43:13.994Z,5.20
2022-10-17T01:45:55.171Z,5.47
2022-10-17T01:48:24.555Z,4.97
2022-10-17T01:50:54.710Z,5.40
2022-10-17T01:53:27.613Z,4.75
2022-10-17T01:58:30.084Z,4.88
2022-10-17T02:01:00.209Z,5.40
2022-10-17T02:03:31.478Z,5.80
2022-10-17T02:05:58.668Z,4.78
2022-10-17T02:08:46.811Z,5.20
2022-10-17T02:11:17.938Z,4.80
2022-10-17T02:14:07.719Z,5.35
2022-10-17T02:16:49.931Z,4.57
2022-10-17T02:19:36.815Z,5.25
2022-10-17T02:22:37.111Z,5.00
2022-10-17T02:25:41.504Z,4.93
2022-10-17T02:28:35.031Z,5.20
2022-10-17T02:31:21.355Z,4.72
2022-10-17T02:34:17.861Z,5.20
2022-10-17T02:36:54.654Z,4.97
2022-10-17T02:39:23.792Z,4.97
2022-10-17T02:41:52.598Z,4.50
2022-10-17T02:44:20.442Z,5.20
2022-10-17T02:46:52.833Z,4.63
2022-10-17T02:49:25.912Z,5.07
2022-10-17T02:52:04.147Z,4.80
2022-10-17T02:55:13.581Z,5.43
2022-10-17T02:57:44.694Z,5.20
2022-10-17T03:00:15.007Z,5.05
2022-10-17T03:02:47.120Z,4.80
2022-10-17T03:05:20.571Z,4.72
2022-10-17T03:07:47.880Z,5.18
2022-10-17T03:10:15.509Z,4.40
2022-10-17T03:12:42.897Z,4.38
2022-10-17T03:15:11.600Z,4.55
2022-10-17T03:17:39.149Z,4.50
2022-10-17T03:20:08.562Z,4.93
2022-10-17T03:22:35.809Z,4.68
2022-10-17T03:25:04.847Z,4.80
2022-10-17T03:27:34.979Z,4.40
2022-10-17T03:30:02.259Z,4.40
2022-10-17T03:32:33.522Z,5.10
2022-10-17T03:35:00.786Z,5.10
2022-10-17T03:37:28.508Z,4.65
2022-10-17T03:39:56.062Z,4.70
2022-10-17T03:42:23.794Z,5.22
2022-10-17T03:44:50.988Z,4.90
2022-10-17T03:47:18.213Z,5.53
2022-10-17T03:49:46.520Z,4.82
2022-10-17T03:52:15.420Z,4.47
2022-10-17T03:54:42.935Z,4.75
2022-10-17T03:57:10.136Z,5.10
2022-10-17T03:59:38.119Z,4.88
2022-10-17T04:02:10.992Z,4.68
2022-10-17T04:04:38.267Z,4.70
2022-10-17T04:07:05.607Z,4.53
2022-10-17T04:09:34.754Z,4.45
2022-10-17T04:12:12.580Z,4.40
2022-10-17T04:14:40.378Z,4.80
2022-10-17T04:17:07.560Z,4.43
2022-10-17T04:19:36.076Z,4.40
2022-10-17T04:22:04.056Z,4.88
2022-10-17T04:24:34.986Z,4.60
2022-10-17T04:27:08.384Z,3.95
2022-10-17T04:29:39.288Z,4.50
2022-10-17T04:32:17.610Z,4.55
2022-10-17T04:34:51.204Z,4.03
2022-10-17T04:37:20.622Z,4.13
2022-10-17T04:39:50.274Z,4.03
2022-10-17T04:42:17.493Z,4.55
2022-10-17T04:44:44.911Z,4.18
2022-10-17T04:49:42.831Z,3.85
2022-10-17T04:52:11.950Z,3.95
2022-10-17T04:54:48.467Z,3.78
2022-10-17T04:57:15.925Z,4.00
2022-10-17T04:59:51.153Z,4.00
2022-10-17T05:02:38.450Z,4.35
2022-10-17T05:05:06.161Z,4.03
2022-10-17T05:07:33.347Z,4.10
2022-10-17T05:10:00.617Z,4.60
2022-10-17T05:12:29.600Z,4.47
2022-10-17T05:14:57.144Z,4.40
2022-10-17T05:17:26.482Z,4.00
2022-10-17T05:19:53.689Z,4.30
2022-10-17T05:22:20.952Z,4.45
2022-10-17T05:24:48.195Z,4.78
2022-10-17T05:27:15.535Z,4.75
2022-10-17T05:29:42.852Z,5.13
2022-10-17T05:32:21.762Z,4.82
2022-10-17T05:34:48.989Z,4.28
2022-10-17T05:37:16.365Z,5.00
2022-10-17T05:39:51.398Z,5.10
2022-10-17T05:42:19.665Z,4.75
2022-10-17T05:44:47.947Z,4.95
2022-10-17T05:47:17.913Z,4.85
2022-10-17T05:49:50.016Z,5.10
2022-10-17T05:52:22.078Z,8.60
2022-10-17T05:55:00.541Z,5.18
2022-10-17T05:57:28.091Z,8.15
2022-10-17T05:59:56.512Z,5.80
2022-10-17T06:02:33.431Z,4.88
2022-10-17T06:05:03.044Z,4.72
2022-10-17T06:07:30.372Z,4.78
2022-10-17T06:09:59.141Z,4.78
2022-10-17T06:12:26.453Z,5.18
2022-10-17T06:14:54.003Z,4.75
2022-10-17T06:17:21.532Z,4.47
2022-10-17T06:19:49.147Z,4.45
2022-10-17T06:22:16.644Z,4.72
2022-10-17T06:24:44.115Z,5.28
2022-10-17T06:27:12.800Z,5.00
2022-10-17T06:29:41.679Z,4.45
2022-10-17T06:32:12.643Z,4.85
2022-10-17T06:34:43.572Z,4.75
2022-10-17T06:37:11.278Z,4.53
2022-10-17T06:39:40.396Z,4.32
2022-10-17T06:42:12.535Z,4.70
2022-10-17T06:44:47.128Z,5.38
2022-10-17T06:47:20.481Z,5.75
2022-10-17T06:49:48.946Z,5.05
2022-10-17T06:52:25.327Z,6.03
2022-10-17T06:55:11.371Z,6.55
2022-10-17T06:57:46.760Z,5.32
2022-10-17T07:00:43.508Z,5.43
2022-10-17T07:03:12.753Z,4.60
2022-10-17T07:05:39.939Z,5.15
2022-10-17T07:08:07.804Z,4.88
2022-10-17T07:10:38.934Z,5.10
2022-10-17T07:13:08.310Z,5.43
2022-10-17T07:15:37.410Z,5.57
2022-10-17T07:18:05.317Z,4.90
2022-10-17T07:20:32.779Z,4.63
2022-10-17T07:23:00.218Z,5.30
2022-10-17T07:25:28.472Z,5.10
2022-10-17T07:28:00.334Z,5.35
2022-10-17T07:30:28.011Z,5.07
2022-10-17T07:33:09.185Z,5.80
2022-10-17T07:35:40.859Z,5.72
2022-10-17T07:38:08.380Z,5.28
2022-10-17T07:40:35.669Z,5.75
2022-10-17T07:43:03.332Z,5.05
2022-10-17T07:45:31.654Z,5.53
2022-10-17T07:47:59.048Z,5.13
2022-10-17T07:50:26.323Z,5.80
2022-10-17T07:52:53.662Z,8.70
2022-10-17T07:55:20.861Z,5.82
2022-10-17T07:57:48.044Z,5.90
2022-10-17T08:00:15.418Z,5.68
2022-10-17T08:02:42.803Z,5.25
2022-10-17T08:05:09.977Z,5.57
2022-10-17T08:07:37.325Z,5.65
2022-10-17T08:10:05.207Z,8.23
2022-10-17T08:12:34.345Z,6.13
2022-10-17T08:15:01.772Z,5.25
2022-10-17T08:17:29.334Z,6.18
2022-10-17T08:19:56.802Z,6.35
2022-10-17T08:22:24.428Z,5.90
2022-10-17T08:24:52.368Z,5.65
2022-10-17T08:27:24.211Z,5.70
2022-10-17T08:29:54.729Z,6.32
2022-10-17T08:32:25.839Z,5.32
2022-10-17T08:34:53.791Z,4.80
2022-10-17T08:37:21.864Z,7.40
2022-10-17T08:39:49.346Z,7.35
2022-10-17T08:42:54.315Z,6.00
2022-10-17T08:45:33.892Z,5.63
2022-10-17T08:48:05.186Z,5.47
2022-10-17T08:51:17.484Z,5.20
2022-10-17T08:54:11.218Z,4.50
2022-10-17T08:56:48.603Z,11.02
2022-10-17T08:59:27.963Z,5.65
2022-10-17T09:02:27.504Z,6.88
2022-10-17T09:05:16.229Z,4.80
2022-10-17T09:07:50.846Z,4.43
2022-10-17T09:10:29.970Z,4.72
2022-10-17T09:13:18.570Z,4.10
2022-10-17T09:16:14.329Z,4.20
2022-10-17T09:18:44.859Z,4.20
2022-10-17T09:21:28.858Z,4.20
2022-10-17T09:24:09.357Z,4.88
2022-10-17T09:26:39.352Z,4.47
2022-10-17T09:29:19.163Z,4.18
2022-10-17T09:31:52.557Z,4.85
2022-10-17T09:34:21.072Z,5.60
2022-10-17T09:36:50.181Z,9.23
2022-10-17T09:39:19.841Z,6.68
2022-10-17T09:41:53.535Z,5.55
2022-10-17T09:44:23.969Z,6.00
2022-10-17T09:47:09.674Z,12.65
2022-10-17T09:49:42.156Z,7.80
2022-10-17T09:52:19.002Z,6.35
2022-10-17T09:55:04.662Z,6.40
2022-10-17T09:57:51.430Z,5.50
2022-10-17T10:00:28.630Z,6.20
2022-10-17T10:03:21.190Z,6.57
2022-10-17T10:06:18.799Z,7.18
2022-10-17T10:08:50.470Z,6.22
2022-10-17T10:11:18.568Z,6.18
2022-10-17T10:13:48.362Z,6.15
2022-10-17T10:16:32.708Z,5.78
2022-10-17T10:19:00.332Z,6.75
2022-10-17T10:21:28.107Z,7.28
2022-10-17T10:24:10.826Z,7.97
2022-10-17T10:26:44.745Z,12.43
2022-10-17T10:29:31.145Z,13.70
2022-10-17T10:32:21.856Z,9.00
2022-10-17T10:34:53.656Z,8.80
2022-10-17T10:37:34.529Z,8.27
2022-10-17T10:40:04.298Z,8.63
2022-10-17T10:42:39.445Z,7.85
2022-10-17T10:45:35.960Z,7.80
2022-10-17T10:48:49.778Z,8.48
2022-10-17T10:51:39.737Z,9.55
2022-10-17T10:54:30.934Z,11.75
2022-10-17T10:57:00.583Z,11.52
2022-10-17T10:59:31.930Z,11.95
2022-10-17T11:02:14.476Z,12.73
2022-10-17T11:04:47.319Z,11.52
2022-10-17T11:07:22.627Z,11.00
2022-10-17T11:10:17.903Z,9.85
2022-10-17T11:12:52.998Z,10.20
2022-10-17T11:15:28.478Z,11.77
2022-10-17T11:17:59.870Z,10.65
2022-10-17T11:20:29.982Z,10.73
2022-10-17T11:25:52.821Z,9.13
2022-10-17T11:28:21.896Z,9.85
2022-10-17T11:30:57.603Z,8.80
2022-10-17T11:33:31.745Z,9.77
2022-10-17T11:36:03.706Z,17.67
2022-10-17T11:38:45.459Z,15.98
2022-10-17T11:41:17.937Z,16.70
2022-10-17T11:43:53.636Z,13.27
2022-10-17T11:46:27.860Z,14.02
2022-10-17T11:49:20.139Z,12.35
2022-10-17T11:52:03.655Z,9.23
2022-10-17T11:54:37.108Z,9.57
2022-10-17T11:57:38.267Z,12.52
2022-10-17T12:00:20.496Z,11.20
2022-10-17T12:03:21.815Z,9.77
2022-10-17T12:05:52.979Z,8.48
2022-10-17T12:08:39.212Z,8.35
2022-10-17T12:11:38.050Z,8.95
2022-10-17T12:14:34.287Z,8.07
2022-10-17T12:17:02.532Z,8.60
2022-10-17T12:19:37.601Z,8.57
2022-10-17T12:22:22.832Z,7.63
2022-10-17T12:24:59.964Z,7.65
2022-10-17T12:27:36.031Z,11.15
2022-10-17T12:30:30.280Z,13.88
2022-10-17T12:33:06.642Z,24.63
2022-10-17T12:35:37.345Z,9.88
2022-10-17T12:38:17.128Z,9.65
2022-10-17T12:40:54.843Z,8.45
2022-10-17T12:43:27.922Z,9.43
2022-10-17T12:45:55.095Z,9.02
2022-10-17T12:48:34.412Z,8.98
2022-10-17T12:51:34.209Z,8.53
2022-10-17T12:54:01.294Z,9.57
2022-10-17T12:56:31.393Z,12.30
2022-10-17T12:58:59.116Z,11.05
2022-10-17T13:01:32.173Z,10.82
2022-10-17T13:04:05.859Z,12.05
2022-10-17T13:06:40.351Z,12.07
2022-10-17T13:09:31.449Z,12.88
2022-10-17T13:12:00.949Z,11.80
2022-10-17T13:14:28.827Z,10.85
2022-10-17T13:17:01.502Z,10.65
2022-10-17T13:19:40.804Z,9.20
2022-10-17T13:22:22.929Z,9.13
2022-10-17T13:24:52.105Z,8.68
2022-10-17T13:27:39.606Z,8.70
2022-10-17T13:30:32.063Z,8.90
2022-10-17T13:33:00.533Z,9.32
2022-10-17T13:35:48.564Z,8.90
2022-10-17T13:38:22.167Z,8.60
2022-10-17T13:40:50.485Z,8.85
2022-10-17T13:43:21.918Z,7.88
2022-10-17T13:45:54.079Z,8.55
2022-10-17T13:48:24.196Z,8.85
2022-10-17T13:51:01.750Z,8.27
2022-10-17T13:53:34.567Z,8.57
2022-10-17T13:56:28.764Z,8.75
2022-10-17T13:58:56.311Z,8.15
2022-10-17T14:01:26.016Z,7.35
2022-10-17T14:04:07.290Z,7.30
2022-10-17T14:06:44.078Z,7.68
2022-10-17T14:09:21.677Z,7.70
2022-10-17T14:12:08.559Z,8.88
2022-10-17T14:14:52.025Z,12.95
2022-10-17T14:17:25.544Z,11.30
2022-10-17T14:20:30.860Z,8.10
2022-10-17T14:22:50.537Z,9.00
2022-10-17T14:25:31.990Z,8.38
2022-10-17T14:28:12.370Z,7.53
2022-10-17T14:33:30.529Z,7.40
2022-10-17T14:36:00.940Z,8.98
2022-10-17T14:38:28.989Z,8.40
2022-10-17T14:41:40.912Z,8.27
2022-10-17T14:44:02.625Z,8.88
2022-10-17T14:46:30.140Z,7.85
2022-10-17T14:49:04.345Z,7.93
2022-10-17T14:51:40.210Z,7.97
2022-10-17T14:54:22.680Z,7.43
2022-10-17T14:56:52.589Z,19.38
2022-10-17T14:59:48.505Z,9.30
2022-10-17T15:02:11.748Z,8.10
2022-10-17T15:04:39.006Z,8.93
2022-10-17T15:07:06.303Z,9.23
2022-10-17T15:09:33.473Z,8.50
2022-10-17T15:12:05.063Z,8.90
2022-10-17T15:14:32.421Z,12.43
2022-10-17T15:17:00.529Z,11.95
2022-10-17T15:19:27.820Z,10.85
2022-10-17T15:21:55.093Z,9.50
2022-10-17T15:24:22.351Z,13.23
2022-10-17T15:26:49.918Z,16.88
2022-10-17T15:29:17.196Z,9.35
2022-10-17T15:31:44.499Z,7.78
2022-10-17T15:34:11.820Z,7.65
2022-10-17T15:36:40.823Z,7.72
2022-10-17T15:39:10.154Z,7.20
2022-10-17T15:41:37.549Z,7.77
2022-10-17T15:44:05.116Z,7.60
2022-10-17T15:46:35.919Z,6.68
2022-10-17T15:49:10.686Z,6.47
2022-10-17T15:51:38.303Z,7.60
2022-10-17T15:54:06.335Z,7.18
2022-10-17T15:56:43.242Z,7.15
2022-10-17T15:59:20.521Z,7.22
2022-10-17T16:01:48.733Z,7.30
2022-10-17T16:04:15.980Z,7.82
2022-10-17T16:06:43.529Z,8.45
2022-10-17T16:09:11.109Z,8.73
2022-10-17T16:11:41.272Z,8.68
2022-10-17T16:14:13.467Z,8.77
2022-10-17T16:16:41.315Z,8.75
2022-10-17T16:19:09.241Z,8.40
2022-10-17T16:21:39.033Z,8.13
2022-10-17T16:24:06.832Z,8.77
2022-10-17T16:26:34.053Z,9.25
2022-10-17T16:29:03.486Z,8.32
2022-10-17T16:31:33.562Z,8.45
2022-10-17T16:34:02.100Z,8.30
2022-10-17T16:36:35.383Z,8.75
2022-10-17T16:39:02.988Z,8.18
2022-10-17T16:41:37.668Z,8.15
2022-10-17T16:44:07.152Z,21.42
2022-10-17T16:46:36.609Z,11.20
2022-10-17T16:49:05.011Z,11.88
2022-10-17T16:51:33.807Z,7.97
2022-10-17T16:54:01.228Z,8.10
2022-10-17T16:56:32.784Z,8.50
2022-10-17T16:59:01.314Z,7.28
2022-10-17T17:01:31.316Z,7.03
2022-10-17T17:03:58.963Z,7.35
2022-10-17T17:06:29.546Z,6.45
2022-10-17T17:08:57.342Z,7.15
2022-10-17T17:11:26.587Z,6.53
2022-10-17T17:13:58.003Z,7.00
2022-10-17T17:16:27.094Z,6.70
2022-10-17T17:18:57.070Z,6.68
2022-10-17T17:21:24.919Z,8.23
2022-10-17T17:23:58.462Z,8.90
2022-10-17T17:26:31.817Z,8.45
2022-10-17T17:29:00.381Z,9.20
2022-10-17T17:31:29.805Z,8.63
2022-10-17T17:33:57.667Z,9.60
2022-10-17T17:36:32.508Z,9.27
2022-10-17T17:39:01.239Z,8.30
2022-10-17T17:41:28.793Z,8.80
2022-10-17T17:43:56.791Z,10.20
2022-10-17T17:46:24.722Z,10.50
2022-10-17T17:48:52.959Z,10.88
2022-10-17T17:51:26.887Z,10.75
2022-10-17T17:53:57.121Z,10.27
2022-10-17T17:56:26.855Z,9.35
2022-10-17T17:58:59.251Z,9.45
2022-10-17T18:01:29.191Z,9.75
2022-10-17T18:03:58.928Z,10.73
2022-10-17T18:08:05.623Z,9.93
2022-10-17T18:10:33.006Z,11.70
2022-10-17T18:13:00.166Z,9.75
2022-10-17T18:15:27.467Z,10.45
2022-10-17T18:17:54.719Z,10.50
2022-10-17T18:20:22.003Z,11.20
2022-10-17T18:22:49.304Z,14.80
2022-10-17T18:25:16.560Z,17.58
2022-10-17T18:27:43.976Z,11.98
2022-10-17T18:30:11.613Z,12.05
2022-10-17T18:32:38.760Z,12.32
2022-10-17T18:35:09.084Z,14.30
2022-10-17T18:37:36.427Z,15.15
2022-10-17T18:40:03.898Z,15.45
2022-10-17T18:42:31.693Z,14.73
2022-10-17T18:44:59.976Z,14.63
2022-10-17T18:47:27.577Z,14.50
2022-10-17T18:49:55.010Z,14.57
2022-10-17T18:52:22.212Z,18.80
2022-10-17T18:54:49.592Z,19.67
2022-10-17T18:57:16.855Z,16.83
2022-10-17T18:59:44.308Z,14.85
2022-10-17T19:02:13.132Z,15.48
2022-10-17T19:04:40.629Z,17.05
2022-10-17T19:07:08.092Z,23.95
2022-10-17T19:09:35.357Z,22.52
2022-10-17T19:12:02.560Z,18.83
2022-10-17T19:14:30.550Z,17.48
2022-10-17T19:16:59.583Z,16.23
2022-10-17T19:19:26.964Z,15.82
2022-10-17T19:21:54.216Z,15.20
2022-10-17T19:24:26.519Z,14.88
2022-10-17T19:26:55.737Z,14.65
2022-10-17T19:29:26.214Z,15.23
2022-10-17T19:34:28.303Z,15.35
2022-10-17T19:36:55.857Z,15.52
2022-10-17T19:39:23.896Z,15.45
2022-10-17T19:41:52.358Z,14.55
2022-10-17T19:44:19.715Z,15.70
2022-10-17T19:46:49.077Z,15.55
2022-10-17T19:49:17.089Z,13.40
2022-10-17T19:51:44.632Z,13.18
2022-10-17T19:54:12.298Z,12.25
2022-10-17T19:56:40.471Z,12.80
2022-10-17T19:59:08.432Z,12.82
2022-10-17T20:01:38.927Z,12.50
2022-10-17T20:04:07.237Z,15.77
2022-10-17T20:06:34.826Z,12.07
2022-10-17T20:09:02.379Z,12.95
2022-10-17T20:11:30.542Z,12.60
2022-10-17T20:13:59.748Z,11.50
2022-10-17T20:16:29.545Z,11.20
2022-10-17T20:19:02.569Z,11.57
2022-10-17T20:21:36.375Z,11.95
2022-10-17T20:24:06.561Z,10.65
2022-10-17T20:29:13.790Z,10.70
2022-10-17T20:31:42.479Z,9.88
2022-10-17T20:34:12.856Z,9.88
2022-10-17T20:36:40.585Z,9.88
2022-10-17T20:39:08.401Z,9.95
2022-10-17T20:43:05.185Z,9.98
2022-10-17T20:45:50.416Z,10.50
2022-10-17T20:48:19.429Z,10.48
2022-10-17T20:50:46.670Z,10.48
2022-10-17T20:56:09.791Z,10.20
2022-10-17T20:58:37.116Z,10.98
2022-10-17T21:01:06.446Z,10.63
2022-10-17T21:03:39.926Z,10.63
2022-10-17T21:06:09.899Z,14.57
2022-10-17T21:08:37.191Z,13.70
2022-10-17T21:11:28.174Z,12.35
2022-10-17T21:14:00.864Z,12.80
2022-10-17T21:16:29.305Z,15.68
2022-10-17T21:18:56.989Z,15.32
2022-10-17T21:21:32.734Z,13.45
2022-10-17T21:24:02.629Z,11.85
2022-10-17T21:26:32.710Z,13.40
2022-10-17T21:29:05.400Z,12.52
2022-10-17T21:31:37.295Z,11.80
2022-10-17T21:34:10.126Z,12.23
2022-10-17T21:36:37.649Z,12.73
2022-10-17T21:39:05.388Z,12.27
2022-10-17T21:41:32.992Z,11.88
2022-10-17T21:44:02.726Z,12.52
2022-10-17T21:46:30.561Z,12.25
2022-10-17T21:48:59.335Z,12.23
2022-10-17T21:51:27.401Z,12.68
2022-10-17T21:53:55.969Z,11.02
2022-10-17T21:56:28.008Z,11.30
2022-10-17T21:58:55.709Z,11.77
2022-10-17T22:01:25.499Z,12.80
2022-10-17T22:03:55.207Z,12.02
2022-10-17T22:06:43.004Z,12.55
2022-10-17T22:09:16.221Z,13.45
2022-10-17T22:11:46.366Z,12.98
2022-10-17T22:14:16.374Z,13.20
2022-10-17T22:16:45.335Z,13.45
2022-10-17T22:19:14.414Z,12.45
2022-10-17T22:21:41.675Z,12.20
2022-10-17T22:24:12.199Z,12.40
2022-10-17T22:26:39.688Z,12.25
2022-10-17T22:29:07.924Z,12.20
2022-10-17T22:31:35.713Z,12.23
2022-10-17T22:34:04.446Z,12.15
2022-10-17T22:36:33.424Z,12.30
2022-10-17T22:39:00.764Z,11.35
2022-10-17T22:41:28.002Z,11.88
2022-10-17T22:43:55.224Z,10.88
2022-10-17T22:46:22.529Z,11.05
2022-10-17T22:48:50.492Z,11.43
2022-10-17T22:51:17.954Z,11.05
2022-10-17T22:53:45.211Z,11.50
2022-10-17T22:56:14.750Z,11.55
2022-10-17T22:58:42.440Z,11.05
2022-10-17T23:01:13.860Z,11.35
2022-10-17T23:03:41.428Z,10.75
2022-10-17T23:06:08.937Z,10.88
2022-10-17T23:08:36.615Z,11.05
2022-10-17T23:11:04.004Z,10.73
2022-10-17T23:13:31.370Z,10.40
2022-10-17T23:15:59.091Z,10.55
2022-10-17T23:18:27.022Z,10.90
2022-10-17T23:20:54.717Z,10.40
2022-10-17T23:23:22.348Z,10.75
2022-10-17T23:25:50.429Z,10.70
2022-10-17T23:28:17.784Z,11.10
2022-10-17T23:30:45.101Z,10.90
2022-10-17T23:33:13.513Z,10.98
2022-10-17T23:35:41.234Z,11.38
2022-10-17T23:38:08.820Z,10.80
2022-10-17T23:40:36.087Z,10.98
2022-10-17T23:43:04.125Z,11.25
2022-10-17T23:45:34.767Z,10.93
2022-10-17T23:48:05.303Z,10.95
2022-10-17T23:50:32.510Z,11.40
2022-10-17T23:52:59.761Z,10.23
2022-10-17T23:55:27.168Z,9.98
2022-10-17T23:57:54.450Z,9.15
